sensor_id;sensor_type;location;lat;lon;timestamp;P1;durP1;ratioP1;P2;durP2;ratioP2
80898;SDS011;70349;49.210;-122.932;2023-07-20T00:01:54;1.98;;;1.17;;
80898;SDS011;70349;49.210;-122.932;2023-07-20T00:04:20;2.75;;;1.10;;
80898;SDS011;70349;49.210;-122.932;2023-07-20T00:06:49;2.30;;;1.30;;
80898;SDS011;70349;49.210;-122.932;2023-07-20T00:11:50;1.52;;;0.85;;
80898;SDS011;70349;49.210;-122.932;2023-07-20T00:14:18;1.90;;;0.93;;
80898;SDS011;70349;49.210;-122.932;2023-07-20T00:16:47;3.50;;;1.65;;
80898;SDS011;70349;49.210;-122.932;2023-07-20T00:19:21;5.10;;;1.15;;
80898;SDS011;70349;49.210;-122.932;2023-07-20T00:21:48;3.03;;;1.17;;
80898;SDS011;70349;49.210;-122.932;2023-07-20T00:24:15;2.80;;;1.15;;
80898;SDS011;70349;49.210;-122.932;2023-07-20T00:26:43;1.77;;;1.10;;
80898;SDS011;70349;49.210;-122.932;2023-07-20T00:29:12;2.88;;;1.60;;
80898;SDS011;70349;49.210;-122.932;2023-07-20T00:31:38;2.35;;;1.25;;
80898;SDS011;70349;49.210;-122.932;2023-07-20T00:34:05;2.22;;;0.95;;
80898;SDS011;70349;49.210;-122.932;2023-07-20T00:36:37;2.47;;;1.20;;
80898;SDS011;70349;49.210;-122.932;2023-07-20T00:39:03;3.60;;;1.38;;
80898;SDS011;70349;49.210;-122.932;2023-07-20T00:41:29;2.55;;;1.20;;
80898;SDS011;70349;49.210;-122.932;2023-07-20T00:43:57;3.05;;;1.30;;
80898;SDS011;70349;49.210;-122.932;2023-07-20T00:46:23;3.08;;;1.20;;
80898;SDS011;70349;49.210;-122.932;2023-07-20T00:48:50;4.40;;;1.10;;
80898;SDS011;70349;49.210;-122.932;2023-07-20T00:51:17;2.35;;;1.05;;
80898;SDS011;70349;49.210;-122.932;2023-07-20T00:53:44;2.78;;;1.27;;
80898;SDS011;70349;49.210;-122.932;2023-07-20T00:56:10;2.38;;;1.20;;
80898;SDS011;70349;49.210;-122.932;2023-07-20T00:58:40;4.45;;;1.40;;
80898;SDS011;70349;49.210;-122.932;2023-07-20T01:01:06;2.83;;;1.35;;
80898;SDS011;70349;49.210;-122.932;2023-07-20T01:03:32;2.00;;;1.02;;
80898;SDS011;70349;49.210;-122.932;2023-07-20T01:11:21;3.35;;;1.23;;
80898;SDS011;70349;49.210;-122.932;2023-07-20T01:13:53;2.63;;;1.38;;
80898;SDS011;70349;49.210;-122.932;2023-07-20T01:16:22;2.53;;;1.00;;
80898;SDS011;70349;49.210;-122.932;2023-07-20T01:18:52;2.30;;;1.00;;
80898;SDS011;70349;49.210;-122.932;2023-07-20T01:21:21;1.90;;;1.13;;
80898;SDS011;70349;49.210;-122.932;2023-07-20T01:24:00;3.47;;;1.50;;
80898;SDS011;70349;49.210;-122.932;2023-07-20T01:32:31;2.22;;;1.10;;
80898;SDS011;70349;49.210;-122.932;2023-07-20T01:34:57;3.13;;;1.35;;
80898;SDS011;70349;49.210;-122.932;2023-07-20T01:37:25;2.20;;;1.30;;
80898;SDS011;70349;49.210;-122.932;2023-07-20T01:39:55;3.28;;;1.40;;
80898;SDS011;70349;49.210;-122.932;2023-07-20T01:42:21;2.25;;;1.20;;
80898;SDS011;70349;49.210;-122.932;2023-07-20T01:44:52;2.80;;;1.17;;
80898;SDS011;70349;49.210;-122.932;2023-07-20T01:47:19;2.97;;;1.38;;
80898;SDS011;70349;49.210;-122.932;2023-07-20T01:49:45;2.88;;;1.42;;
80898;SDS011;70349;49.210;-122.932;2023-07-20T01:52:11;4.32;;;1.52;;
80898;SDS011;70349;49.210;-122.932;2023-07-20T01:54:40;2.30;;;1.02;;
80898;SDS011;70349;49.210;-122.932;2023-07-20T01:57:07;3.00;;;1.27;;
80898;SDS011;70349;49.210;-122.932;2023-07-20T01:59:35;4.40;;;1.23;;
80898;SDS011;70349;49.210;-122.932;2023-07-20T02:02:02;2.78;;;1.40;;
80898;SDS011;70349;49.210;-122.932;2023-07-20T02:04:28;3.60;;;1.55;;
80898;SDS011;70349;49.210;-122.932;2023-07-20T02:06:54;3.85;;;1.45;;
80898;SDS011;70349;49.210;-122.932;2023-07-20T02:09:23;3.95;;;1.48;;
80898;SDS011;70349;49.210;-122.932;2023-07-20T02:11:49;3.05;;;1.33;;
80898;SDS011;70349;49.210;-122.932;2023-07-20T02:14:16;3.15;;;1.60;;
80898;SDS011;70349;49.210;-122.932;2023-07-20T02:16:42;3.97;;;1.73;;
80898;SDS011;70349;49.210;-122.932;2023-07-20T02:21:36;2.65;;;1.52;;
80898;SDS011;70349;49.210;-122.932;2023-07-20T02:24:03;5.80;;;1.67;;
80898;SDS011;70349;49.210;-122.932;2023-07-20T02:26:32;3.08;;;1.40;;
80898;SDS011;70349;49.210;-122.932;2023-07-20T02:29:00;4.40;;;1.70;;
80898;SDS011;70349;49.210;-122.932;2023-07-20T02:31:30;3.75;;;1.92;;
80898;SDS011;70349;49.210;-122.932;2023-07-20T02:33:56;3.10;;;1.63;;
80898;SDS011;70349;49.210;-122.932;2023-07-20T02:36:22;2.80;;;1.50;;
80898;SDS011;70349;49.210;-122.932;2023-07-20T02:38:49;3.03;;;1.85;;
80898;SDS011;70349;49.210;-122.932;2023-07-20T02:41:15;3.17;;;1.83;;
80898;SDS011;70349;49.210;-122.932;2023-07-20T02:43:43;3.72;;;1.63;;
80898;SDS011;70349;49.210;-122.932;2023-07-20T02:48:35;5.95;;;1.83;;
80898;SDS011;70349;49.210;-122.932;2023-07-20T02:51:02;3.50;;;1.52;;
80898;SDS011;70349;49.210;-122.932;2023-07-20T02:53:33;3.40;;;1.73;;
80898;SDS011;70349;49.210;-122.932;2023-07-20T02:55:59;3.92;;;2.05;;
80898;SDS011;70349;49.210;-122.932;2023-07-20T02:58:25;4.72;;;1.90;;
80898;SDS011;70349;49.210;-122.932;2023-07-20T03:00:54;3.28;;;2.25;;
80898;SDS011;70349;49.210;-122.932;2023-07-20T03:03:20;2.83;;;1.42;;
80898;SDS011;70349;49.210;-122.932;2023-07-20T03:05:47;6.20;;;2.25;;
80898;SDS011;70349;49.210;-122.932;2023-07-20T03:08:21;3.45;;;1.95;;
80898;SDS011;70349;49.210;-122.932;2023-07-20T03:10:47;3.65;;;2.20;;
80898;SDS011;70349;49.210;-122.932;2023-07-20T03:13:14;3.38;;;1.88;;
80898;SDS011;70349;49.210;-122.932;2023-07-20T03:15:41;2.88;;;1.70;;
80898;SDS011;70349;49.210;-122.932;2023-07-20T03:18:08;2.92;;;1.88;;
80898;SDS011;70349;49.210;-122.932;2023-07-20T03:23:03;8.20;;;5.85;;
80898;SDS011;70349;49.210;-122.932;2023-07-20T03:25:29;4.00;;;2.25;;
80898;SDS011;70349;49.210;-122.932;2023-07-20T03:27:56;3.95;;;1.85;;
80898;SDS011;70349;49.210;-122.932;2023-07-20T03:30:25;3.95;;;1.73;;
80898;SDS011;70349;49.210;-122.932;2023-07-20T03:32:51;3.33;;;1.70;;
80898;SDS011;70349;49.210;-122.932;2023-07-20T03:35:22;4.70;;;1.80;;
80898;SDS011;70349;49.210;-122.932;2023-07-20T03:37:51;3.60;;;1.50;;
80898;SDS011;70349;49.210;-122.932;2023-07-20T03:40:20;4.53;;;1.85;;
80898;SDS011;70349;49.210;-122.932;2023-07-20T03:42:46;3.95;;;1.95;;
80898;SDS011;70349;49.210;-122.932;2023-07-20T03:45:13;3.20;;;1.88;;
80898;SDS011;70349;49.210;-122.932;2023-07-20T03:47:41;3.70;;;2.17;;
80898;SDS011;70349;49.210;-122.932;2023-07-20T03:50:13;4.15;;;2.03;;
80898;SDS011;70349;49.210;-122.932;2023-07-20T03:52:39;5.30;;;1.95;;
80898;SDS011;70349;49.210;-122.932;2023-07-20T03:55:06;6.57;;;2.10;;
80898;SDS011;70349;49.210;-122.932;2023-07-20T03:57:32;3.15;;;2.13;;
80898;SDS011;70349;49.210;-122.932;2023-07-20T03:59:59;5.60;;;2.10;;
80898;SDS011;70349;49.210;-122.932;2023-07-20T04:02:25;3.05;;;1.65;;
80898;SDS011;70349;49.210;-122.932;2023-07-20T04:04:53;3.67;;;1.83;;
80898;SDS011;70349;49.210;-122.932;2023-07-20T04:07:20;4.03;;;2.15;;
80898;SDS011;70349;49.210;-122.932;2023-07-20T04:09:48;4.57;;;2.63;;
80898;SDS011;70349;49.210;-122.932;2023-07-20T04:12:14;3.63;;;2.25;;
80898;SDS011;70349;49.210;-122.932;2023-07-20T04:14:41;5.18;;;2.17;;
80898;SDS011;70349;49.210;-122.932;2023-07-20T04:17:07;4.43;;;2.22;;
80898;SDS011;70349;49.210;-122.932;2023-07-20T04:19:36;5.15;;;2.33;;
80898;SDS011;70349;49.210;-122.932;2023-07-20T04:22:02;4.38;;;2.00;;
80898;SDS011;70349;49.210;-122.932;2023-07-20T04:24:28;4.15;;;1.90;;
80898;SDS011;70349;49.210;-122.932;2023-07-20T04:26:57;4.15;;;2.08;;
80898;SDS011;70349;49.210;-122.932;2023-07-20T04:29:23;5.13;;;1.75;;
80898;SDS011;70349;49.210;-122.932;2023-07-20T04:31:50;4.93;;;2.38;;
80898;SDS011;70349;49.210;-122.932;2023-07-20T04:34:16;4.47;;;2.40;;
80898;SDS011;70349;49.210;-122.932;2023-07-20T04:36:42;5.55;;;1.92;;
80898;SDS011;70349;49.210;-122.932;2023-07-20T04:39:09;4.93;;;2.10;;
80898;SDS011;70349;49.210;-122.932;2023-07-20T04:41:38;3.83;;;2.65;;
80898;SDS011;70349;49.210;-122.932;2023-07-20T04:44:04;9.05;;;3.28;;
80898;SDS011;70349;49.210;-122.932;2023-07-20T04:46:30;6.47;;;2.92;;
80898;SDS011;70349;49.210;-122.932;2023-07-20T04:48:56;5.53;;;2.50;;
80898;SDS011;70349;49.210;-122.932;2023-07-20T04:51:23;5.30;;;2.55;;
80898;SDS011;70349;49.210;-122.932;2023-07-20T04:53:49;7.80;;;3.10;;
80898;SDS011;70349;49.210;-122.932;2023-07-20T04:56:18;4.07;;;2.40;;
80898;SDS011;70349;49.210;-122.932;2023-07-20T04:58:44;5.28;;;2.30;;
80898;SDS011;70349;49.210;-122.932;2023-07-20T05:01:11;4.68;;;2.33;;
80898;SDS011;70349;49.210;-122.932;2023-07-20T05:03:42;3.85;;;2.38;;
80898;SDS011;70349;49.210;-122.932;2023-07-20T05:06:08;4.13;;;2.35;;
80898;SDS011;70349;49.210;-122.932;2023-07-20T05:08:34;4.97;;;2.58;;
80898;SDS011;70349;49.210;-122.932;2023-07-20T05:11:00;4.80;;;2.72;;
80898;SDS011;70349;49.210;-122.932;2023-07-20T05:13:27;4.60;;;2.53;;
80898;SDS011;70349;49.210;-122.932;2023-07-20T05:15:56;5.53;;;2.30;;
80898;SDS011;70349;49.210;-122.932;2023-07-20T05:18:25;7.97;;;2.47;;
80898;SDS011;70349;49.210;-122.932;2023-07-20T05:20:51;4.78;;;2.80;;
80898;SDS011;70349;49.210;-122.932;2023-07-20T05:23:17;3.92;;;1.98;;
80898;SDS011;70349;49.210;-122.932;2023-07-20T05:25:46;4.53;;;2.28;;
80898;SDS011;70349;49.210;-122.932;2023-07-20T05:28:17;4.47;;;1.98;;
80898;SDS011;70349;49.210;-122.932;2023-07-20T05:30:43;4.88;;;3.08;;
80898;SDS011;70349;49.210;-122.932;2023-07-20T05:33:09;4.72;;;2.47;;
80898;SDS011;70349;49.210;-122.932;2023-07-20T05:35:36;6.25;;;2.25;;
80898;SDS011;70349;49.210;-122.932;2023-07-20T05:38:03;6.55;;;2.40;;
80898;SDS011;70349;49.210;-122.932;2023-07-20T05:40:30;4.97;;;2.40;;
80898;SDS011;70349;49.210;-122.932;2023-07-20T05:42:56;4.72;;;1.90;;
80898;SDS011;70349;49.210;-122.932;2023-07-20T05:45:22;4.15;;;2.15;;
80898;SDS011;70349;49.210;-122.932;2023-07-20T05:47:51;4.00;;;2.38;;
80898;SDS011;70349;49.210;-122.932;2023-07-20T05:50:18;3.25;;;2.28;;
80898;SDS011;70349;49.210;-122.932;2023-07-20T05:52:44;3.35;;;1.95;;
80898;SDS011;70349;49.210;-122.932;2023-07-20T05:55:13;4.25;;;2.60;;
80898;SDS011;70349;49.210;-122.932;2023-07-20T05:57:42;5.38;;;4.57;;
80898;SDS011;70349;49.210;-122.932;2023-07-20T06:00:09;4.78;;;2.33;;
80898;SDS011;70349;49.210;-122.932;2023-07-20T06:02:39;6.78;;;2.90;;
80898;SDS011;70349;49.210;-122.932;2023-07-20T06:05:08;5.03;;;2.70;;
80898;SDS011;70349;49.210;-122.932;2023-07-20T06:07:37;4.93;;;3.22;;
80898;SDS011;70349;49.210;-122.932;2023-07-20T06:10:04;7.30;;;2.75;;
80898;SDS011;70349;49.210;-122.932;2023-07-20T06:12:31;3.92;;;2.33;;
80898;SDS011;70349;49.210;-122.932;2023-07-20T06:15:16;5.63;;;3.08;;
80898;SDS011;70349;49.210;-122.932;2023-07-20T06:17:51;4.22;;;3.20;;
80898;SDS011;70349;49.210;-122.932;2023-07-20T06:22:45;3.88;;;2.75;;
80898;SDS011;70349;49.210;-122.932;2023-07-20T06:25:12;5.10;;;2.38;;
80898;SDS011;70349;49.210;-122.932;2023-07-20T06:27:38;4.88;;;2.78;;
80898;SDS011;70349;49.210;-122.932;2023-07-20T06:30:07;4.15;;;2.67;;
80898;SDS011;70349;49.210;-122.932;2023-07-20T06:32:33;4.68;;;2.58;;
80898;SDS011;70349;49.210;-122.932;2023-07-20T06:34:59;5.10;;;3.08;;
80898;SDS011;70349;49.210;-122.932;2023-07-20T06:37:28;5.05;;;3.50;;
80898;SDS011;70349;49.210;-122.932;2023-07-20T06:39:57;5.07;;;2.30;;
80898;SDS011;70349;49.210;-122.932;2023-07-20T06:44:52;6.60;;;2.47;;
80898;SDS011;70349;49.210;-122.932;2023-07-20T06:47:18;5.28;;;2.60;;
80898;SDS011;70349;49.210;-122.932;2023-07-20T06:49:44;5.50;;;3.63;;
80898;SDS011;70349;49.210;-122.932;2023-07-20T06:52:10;3.67;;;2.22;;
80898;SDS011;70349;49.210;-122.932;2023-07-20T06:54:37;5.00;;;2.88;;
80898;SDS011;70349;49.210;-122.932;2023-07-20T06:57:04;4.65;;;3.30;;
80898;SDS011;70349;49.210;-122.932;2023-07-20T06:59:31;4.05;;;2.33;;
80898;SDS011;70349;49.210;-122.932;2023-07-20T07:01:57;5.32;;;2.50;;
80898;SDS011;70349;49.210;-122.932;2023-07-20T07:04:25;5.70;;;3.10;;
80898;SDS011;70349;49.210;-122.932;2023-07-20T07:06:52;4.32;;;3.00;;
80898;SDS011;70349;49.210;-122.932;2023-07-20T07:09:18;4.65;;;3.90;;
80898;SDS011;70349;49.210;-122.932;2023-07-20T07:11:46;4.68;;;2.90;;
80898;SDS011;70349;49.210;-122.932;2023-07-20T07:14:12;5.03;;;2.75;;
80898;SDS011;70349;49.210;-122.932;2023-07-20T07:16:38;5.45;;;2.72;;
80898;SDS011;70349;49.210;-122.932;2023-07-20T07:19:05;4.05;;;2.83;;
80898;SDS011;70349;49.210;-122.932;2023-07-20T07:21:34;4.95;;;2.50;;
80898;SDS011;70349;49.210;-122.932;2023-07-20T07:24:00;5.50;;;2.88;;
80898;SDS011;70349;49.210;-122.932;2023-07-20T07:26:26;5.18;;;3.00;;
80898;SDS011;70349;49.210;-122.932;2023-07-20T07:28:52;5.70;;;3.45;;
80898;SDS011;70349;49.210;-122.932;2023-07-20T07:31:19;4.90;;;2.35;;
80898;SDS011;70349;49.210;-122.932;2023-07-20T07:33:46;4.97;;;2.65;;
80898;SDS011;70349;49.210;-122.932;2023-07-20T07:36:12;4.88;;;2.58;;
80898;SDS011;70349;49.210;-122.932;2023-07-20T07:38:40;6.03;;;2.55;;
80898;SDS011;70349;49.210;-122.932;2023-07-20T07:41:07;5.47;;;2.40;;
80898;SDS011;70349;49.210;-122.932;2023-07-20T07:43:33;4.63;;;2.65;;
80898;SDS011;70349;49.210;-122.932;2023-07-20T07:46:00;4.53;;;2.42;;
80898;SDS011;70349;49.210;-122.932;2023-07-20T07:48:27;4.80;;;3.33;;
80898;SDS011;70349;49.210;-122.932;2023-07-20T07:50:53;5.32;;;2.67;;
80898;SDS011;70349;49.210;-122.932;2023-07-20T07:55:48;5.53;;;2.83;;
80898;SDS011;70349;49.210;-122.932;2023-07-20T07:58:14;5.55;;;3.80;;
80898;SDS011;70349;49.210;-122.932;2023-07-20T08:00:40;5.47;;;3.03;;
80898;SDS011;70349;49.210;-122.932;2023-07-20T08:03:06;7.10;;;3.20;;
80898;SDS011;70349;49.210;-122.932;2023-07-20T08:05:35;7.35;;;3.30;;
80898;SDS011;70349;49.210;-122.932;2023-07-20T08:08:02;3.97;;;2.95;;
80898;SDS011;70349;49.210;-122.932;2023-07-20T08:10:31;6.10;;;2.60;;
80898;SDS011;70349;49.210;-122.932;2023-07-20T08:13:01;7.38;;;4.13;;
80898;SDS011;70349;49.210;-122.932;2023-07-20T08:15:27;4.50;;;2.40;;
80898;SDS011;70349;49.210;-122.932;2023-07-20T08:17:56;4.35;;;2.88;;
80898;SDS011;70349;49.210;-122.932;2023-07-20T08:20:22;5.88;;;3.03;;
80898;SDS011;70349;49.210;-122.932;2023-07-20T08:22:52;5.55;;;2.58;;
80898;SDS011;70349;49.210;-122.932;2023-07-20T08:25:20;6.25;;;3.05;;
80898;SDS011;70349;49.210;-122.932;2023-07-20T08:27:46;5.85;;;3.08;;
80898;SDS011;70349;49.210;-122.932;2023-07-20T08:30:13;5.65;;;2.75;;
80898;SDS011;70349;49.210;-122.932;2023-07-20T08:32:42;4.68;;;2.47;;
80898;SDS011;70349;49.210;-122.932;2023-07-20T08:35:11;4.57;;;2.75;;
80898;SDS011;70349;49.210;-122.932;2023-07-20T08:37:37;3.70;;;2.47;;
80898;SDS011;70349;49.210;-122.932;2023-07-20T08:40:04;5.28;;;2.67;;
80898;SDS011;70349;49.210;-122.932;2023-07-20T08:42:34;3.70;;;2.40;;
80898;SDS011;70349;49.210;-122.932;2023-07-20T08:45:01;3.50;;;2.28;;
80898;SDS011;70349;49.210;-122.932;2023-07-20T08:47:31;4.60;;;2.40;;
80898;SDS011;70349;49.210;-122.932;2023-07-20T08:49:58;3.33;;;1.92;;
80898;SDS011;70349;49.210;-122.932;2023-07-20T08:52:25;2.85;;;1.98;;
80898;SDS011;70349;49.210;-122.932;2023-07-20T08:54:51;4.53;;;2.60;;
80898;SDS011;70349;49.210;-122.932;2023-07-20T08:57:18;3.05;;;2.05;;
80898;SDS011;70349;49.210;-122.932;2023-07-20T08:59:46;3.58;;;2.55;;
80898;SDS011;70349;49.210;-122.932;2023-07-20T09:02:15;5.88;;;2.22;;
80898;SDS011;70349;49.210;-122.932;2023-07-20T09:04:44;4.63;;;2.30;;
80898;SDS011;70349;49.210;-122.932;2023-07-20T09:07:12;7.00;;;2.47;;
80898;SDS011;70349;49.210;-122.932;2023-07-20T09:09:42;3.17;;;2.13;;
80898;SDS011;70349;49.210;-122.932;2023-07-20T09:12:14;3.45;;;2.65;;
80898;SDS011;70349;49.210;-122.932;2023-07-20T09:14:44;4.07;;;2.45;;
80898;SDS011;70349;49.210;-122.932;2023-07-20T09:17:14;3.00;;;2.00;;
80898;SDS011;70349;49.210;-122.932;2023-07-20T09:19:47;4.13;;;2.08;;
80898;SDS011;70349;49.210;-122.932;2023-07-20T09:22:14;3.40;;;2.60;;
80898;SDS011;70349;49.210;-122.932;2023-07-20T09:24:40;5.22;;;2.20;;
80898;SDS011;70349;49.210;-122.932;2023-07-20T09:27:10;3.63;;;2.30;;
80898;SDS011;70349;49.210;-122.932;2023-07-20T09:29:49;3.08;;;1.90;;
80898;SDS011;70349;49.210;-122.932;2023-07-20T09:32:20;3.35;;;2.50;;
80898;SDS011;70349;49.210;-122.932;2023-07-20T09:34:47;3.85;;;2.70;;
80898;SDS011;70349;49.210;-122.932;2023-07-20T09:37:13;3.53;;;2.17;;
80898;SDS011;70349;49.210;-122.932;2023-07-20T09:39:45;2.90;;;1.65;;
80898;SDS011;70349;49.210;-122.932;2023-07-20T09:42:17;5.15;;;2.13;;
80898;SDS011;70349;49.210;-122.932;2023-07-20T09:44:46;3.92;;;1.88;;
80898;SDS011;70349;49.210;-122.932;2023-07-20T09:47:12;4.40;;;2.97;;
80898;SDS011;70349;49.210;-122.932;2023-07-20T09:49:39;4.35;;;2.65;;
80898;SDS011;70349;49.210;-122.932;2023-07-20T09:52:07;2.83;;;2.30;;
80898;SDS011;70349;49.210;-122.932;2023-07-20T09:54:36;3.97;;;2.83;;
80898;SDS011;70349;49.210;-122.932;2023-07-20T09:57:08;5.55;;;2.60;;
80898;SDS011;70349;49.210;-122.932;2023-07-20T09:59:41;3.13;;;2.50;;
80898;SDS011;70349;49.210;-122.932;2023-07-20T10:04:39;4.45;;;2.47;;
80898;SDS011;70349;49.210;-122.932;2023-07-20T10:07:08;4.47;;;2.38;;
80898;SDS011;70349;49.210;-122.932;2023-07-20T10:09:41;4.25;;;2.30;;
80898;SDS011;70349;49.210;-122.932;2023-07-20T10:12:10;4.10;;;2.50;;
80898;SDS011;70349;49.210;-122.932;2023-07-20T10:14:40;3.65;;;2.63;;
80898;SDS011;70349;49.210;-122.932;2023-07-20T10:17:09;4.25;;;2.70;;
80898;SDS011;70349;49.210;-122.932;2023-07-20T10:19:43;4.63;;;2.33;;
80898;SDS011;70349;49.210;-122.932;2023-07-20T10:22:25;3.50;;;1.98;;
80898;SDS011;70349;49.210;-122.932;2023-07-20T10:24:52;5.90;;;3.25;;
80898;SDS011;70349;49.210;-122.932;2023-07-20T10:27:26;4.53;;;3.25;;
80898;SDS011;70349;49.210;-122.932;2023-07-20T10:29:52;3.95;;;2.65;;
80898;SDS011;70349;49.210;-122.932;2023-07-20T10:32:20;3.88;;;2.45;;
80898;SDS011;70349;49.210;-122.932;2023-07-20T10:34:53;3.25;;;2.47;;
80898;SDS011;70349;49.210;-122.932;2023-07-20T10:45:51;4.30;;;2.67;;
80898;SDS011;70349;49.210;-122.932;2023-07-20T10:48:17;4.43;;;2.85;;
80898;SDS011;70349;49.210;-122.932;2023-07-20T10:50:45;4.57;;;3.25;;
80898;SDS011;70349;49.210;-122.932;2023-07-20T10:53:15;3.75;;;2.58;;
80898;SDS011;70349;49.210;-122.932;2023-07-20T10:55:42;5.50;;;2.65;;
80898;SDS011;70349;49.210;-122.932;2023-07-20T10:58:18;6.43;;;3.03;;
80898;SDS011;70349;49.210;-122.932;2023-07-20T11:01:02;5.10;;;3.10;;
80898;SDS011;70349;49.210;-122.932;2023-07-20T11:03:36;5.18;;;3.72;;
80898;SDS011;70349;49.210;-122.932;2023-07-20T11:11:34;4.22;;;3.08;;
80898;SDS011;70349;49.210;-122.932;2023-07-20T11:14:05;5.28;;;2.88;;
80898;SDS011;70349;49.210;-122.932;2023-07-20T11:16:44;4.68;;;3.20;;
80898;SDS011;70349;49.210;-122.932;2023-07-20T11:19:23;3.75;;;2.53;;
80898;SDS011;70349;49.210;-122.932;2023-07-20T11:21:56;5.50;;;3.30;;
80898;SDS011;70349;49.210;-122.932;2023-07-20T11:24:26;4.47;;;3.35;;
80898;SDS011;70349;49.210;-122.932;2023-07-20T11:26:55;5.25;;;3.40;;
80898;SDS011;70349;49.210;-122.932;2023-07-20T11:29:22;4.75;;;3.45;;
80898;SDS011;70349;49.210;-122.932;2023-07-20T11:31:54;4.57;;;3.15;;
80898;SDS011;70349;49.210;-122.932;2023-07-20T11:34:22;5.00;;;3.20;;
80898;SDS011;70349;49.210;-122.932;2023-07-20T11:36:52;6.78;;;3.08;;
80898;SDS011;70349;49.210;-122.932;2023-07-20T11:39:21;7.07;;;2.90;;
80898;SDS011;70349;49.210;-122.932;2023-07-20T11:41:51;6.40;;;2.90;;
80898;SDS011;70349;49.210;-122.932;2023-07-20T11:44:22;5.47;;;3.08;;
80898;SDS011;70349;49.210;-122.932;2023-07-20T11:49:35;4.95;;;2.70;;
80898;SDS011;70349;49.210;-122.932;2023-07-20T11:52:14;5.65;;;3.10;;
80898;SDS011;70349;49.210;-122.932;2023-07-20T11:54:42;4.50;;;2.58;;
80898;SDS011;70349;49.210;-122.932;2023-07-20T11:57:18;5.03;;;2.88;;
80898;SDS011;70349;49.210;-122.932;2023-07-20T11:59:54;4.32;;;3.10;;
80898;SDS011;70349;49.210;-122.932;2023-07-20T12:02:29;3.88;;;2.88;;
80898;SDS011;70349;49.210;-122.932;2023-07-20T12:04:56;6.03;;;3.70;;
80898;SDS011;70349;49.210;-122.932;2023-07-20T12:07:22;4.97;;;3.17;;
80898;SDS011;70349;49.210;-122.932;2023-07-20T12:10:05;3.95;;;2.97;;
80898;SDS011;70349;49.210;-122.932;2023-07-20T12:12:39;5.47;;;3.00;;
80898;SDS011;70349;49.210;-122.932;2023-07-20T12:17:51;5.45;;;3.85;;
80898;SDS011;70349;49.210;-122.932;2023-07-20T12:20:25;4.30;;;2.45;;
80898;SDS011;70349;49.210;-122.932;2023-07-20T12:22:52;5.78;;;2.65;;
80898;SDS011;70349;49.210;-122.932;2023-07-20T12:25:34;5.70;;;3.35;;
80898;SDS011;70349;49.210;-122.932;2023-07-20T12:28:00;5.35;;;2.97;;
80898;SDS011;70349;49.210;-122.932;2023-07-20T12:30:28;4.13;;;2.70;;
80898;SDS011;70349;49.210;-122.932;2023-07-20T12:32:57;4.65;;;2.95;;
80898;SDS011;70349;49.210;-122.932;2023-07-20T12:35:23;4.82;;;2.83;;
80898;SDS011;70349;49.210;-122.932;2023-07-20T12:37:49;4.93;;;2.75;;
80898;SDS011;70349;49.210;-122.932;2023-07-20T12:40:19;6.57;;;4.38;;
80898;SDS011;70349;49.210;-122.932;2023-07-20T12:42:45;5.63;;;4.25;;
80898;SDS011;70349;49.210;-122.932;2023-07-20T12:45:14;4.35;;;2.40;;
80898;SDS011;70349;49.210;-122.932;2023-07-20T12:47:40;6.95;;;3.47;;
80898;SDS011;70349;49.210;-122.932;2023-07-20T12:50:08;5.43;;;2.83;;
80898;SDS011;70349;49.210;-122.932;2023-07-20T12:52:38;5.38;;;3.53;;
80898;SDS011;70349;49.210;-122.932;2023-07-20T12:55:08;5.25;;;2.85;;
80898;SDS011;70349;49.210;-122.932;2023-07-20T12:57:35;3.50;;;2.45;;
80898;SDS011;70349;49.210;-122.932;2023-07-20T13:00:05;5.03;;;2.97;;
80898;SDS011;70349;49.210;-122.932;2023-07-20T13:02:35;5.43;;;2.63;;
80898;SDS011;70349;49.210;-122.932;2023-07-20T13:05:01;4.55;;;2.95;;
80898;SDS011;70349;49.210;-122.932;2023-07-20T13:07:31;6.05;;;3.22;;
80898;SDS011;70349;49.210;-122.932;2023-07-20T13:10:02;5.70;;;3.30;;
80898;SDS011;70349;49.210;-122.932;2023-07-20T13:12:30;4.30;;;2.78;;
80898;SDS011;70349;49.210;-122.932;2023-07-20T13:14:57;4.65;;;2.63;;
80898;SDS011;70349;49.210;-122.932;2023-07-20T13:17:27;4.30;;;2.47;;
80898;SDS011;70349;49.210;-122.932;2023-07-20T13:19:54;5.88;;;3.17;;
80898;SDS011;70349;49.210;-122.932;2023-07-20T13:22:23;4.45;;;3.85;;
80898;SDS011;70349;49.210;-122.932;2023-07-20T13:24:50;5.60;;;3.47;;
80898;SDS011;70349;49.210;-122.932;2023-07-20T13:27:19;7.82;;;2.97;;
80898;SDS011;70349;49.210;-122.932;2023-07-20T13:32:16;9.45;;;4.18;;
80898;SDS011;70349;49.210;-122.932;2023-07-20T13:34:46;6.65;;;3.92;;
80898;SDS011;70349;49.210;-122.932;2023-07-20T13:37:13;5.68;;;3.72;;
80898;SDS011;70349;49.210;-122.932;2023-07-20T13:39:41;5.82;;;3.55;;
80898;SDS011;70349;49.210;-122.932;2023-07-20T13:42:07;6.47;;;3.88;;
80898;SDS011;70349;49.210;-122.932;2023-07-20T13:44:37;6.60;;;3.88;;
80898;SDS011;70349;49.210;-122.932;2023-07-20T13:47:04;8.10;;;4.00;;
80898;SDS011;70349;49.210;-122.932;2023-07-20T13:49:33;7.78;;;4.95;;
80898;SDS011;70349;49.210;-122.932;2023-07-20T13:51:59;6.88;;;4.03;;
80898;SDS011;70349;49.210;-122.932;2023-07-20T14:55:26;7.43;;;4.57;;
80898;SDS011;70349;49.210;-122.932;2023-07-20T14:57:53;6.30;;;4.57;;
80898;SDS011;70349;49.210;-122.932;2023-07-20T15:00:19;6.47;;;4.00;;
80898;SDS011;70349;49.210;-122.932;2023-07-20T15:02:45;10.50;;;5.57;;
80898;SDS011;70349;49.210;-122.932;2023-07-20T15:05:11;7.85;;;4.57;;
80898;SDS011;70349;49.210;-122.932;2023-07-20T15:07:38;7.13;;;4.60;;
80898;SDS011;70349;49.210;-122.932;2023-07-20T15:10:08;8.25;;;4.43;;
80898;SDS011;70349;49.210;-122.932;2023-07-20T15:12:37;11.50;;;4.90;;
80898;SDS011;70349;49.210;-122.932;2023-07-20T15:17:36;6.03;;;3.03;;
80898;SDS011;70349;49.210;-122.932;2023-07-20T15:20:06;5.72;;;4.03;;
80898;SDS011;70349;49.210;-122.932;2023-07-20T15:22:36;5.75;;;3.22;;
80898;SDS011;70349;49.210;-122.932;2023-07-20T15:25:04;7.93;;;3.90;;
80898;SDS011;70349;49.210;-122.932;2023-07-20T15:27:32;4.85;;;2.83;;
80898;SDS011;70349;49.210;-122.932;2023-07-20T15:29:59;6.78;;;3.00;;
80898;SDS011;70349;49.210;-122.932;2023-07-20T15:32:25;6.53;;;2.65;;
80898;SDS011;70349;49.210;-122.932;2023-07-20T15:34:54;4.30;;;2.40;;
80898;SDS011;70349;49.210;-122.932;2023-07-20T15:37:20;5.45;;;3.25;;
80898;SDS011;70349;49.210;-122.932;2023-07-20T15:39:50;4.18;;;2.53;;
80898;SDS011;70349;49.210;-122.932;2023-07-20T15:42:19;3.72;;;2.33;;
80898;SDS011;70349;49.210;-122.932;2023-07-20T15:44:47;6.13;;;2.63;;
80898;SDS011;70349;49.210;-122.932;2023-07-20T15:47:13;4.40;;;2.42;;
80898;SDS011;70349;49.210;-122.932;2023-07-20T15:49:42;4.68;;;2.22;;
80898;SDS011;70349;49.210;-122.932;2023-07-20T15:52:13;5.13;;;3.22;;
80898;SDS011;70349;49.210;-122.932;2023-07-20T15:54:43;4.57;;;1.98;;
80898;SDS011;70349;49.210;-122.932;2023-07-20T15:57:15;4.90;;;2.35;;
80898;SDS011;70349;49.210;-122.932;2023-07-20T15:59:41;4.63;;;2.83;;
80898;SDS011;70349;49.210;-122.932;2023-07-20T16:02:07;3.72;;;2.03;;
80898;SDS011;70349;49.210;-122.932;2023-07-20T16:04:36;4.28;;;2.25;;
80898;SDS011;70349;49.210;-122.932;2023-07-20T16:07:03;5.72;;;2.50;;
80898;SDS011;70349;49.210;-122.932;2023-07-20T16:09:32;4.80;;;2.42;;
80898;SDS011;70349;49.210;-122.932;2023-07-20T16:12:00;3.38;;;1.73;;